Time;durP1;ratioP1;P1;durP2;ratioP2;P2;SDS_P1;SDS_P2;PMS_P1;PMS_P2;Temp;Humidity;BMP_temperature;BMP_pressure;BME280_temperature;BME280_humidity;BME280_pressure;Samples;Min_cycle;Max_cycle;Signal;HPM_P1;HPM_P2
2022/11/26 00:00:51;;;;;;;;;;;4.70;99.90;;;;;;5007463;28;20117;-83
2022/11/26 00:03:18;;;;;;;0.60;0.60;;;4.70;99.90;;;;;;5007173;28;19921;-84
2022/11/26 00:05:47;;;;;;;0.55;0.55;;;5.20;99.90;;;;;;5006035;28;20029;-83
2022/11/26 00:08:22;;;;;;;0.63;0.63;;;4.70;99.90;;;;;;5010860;28;20053;-83
2022/11/26 00:10:50;;;;;;;0.65;0.65;;;4.60;99.90;;;;;;5004122;28;20381;-82
2022/11/26 00:13:20;;;;;;;0.60;0.60;;;4.60;99.90;;;;;;5003313;28;20042;-82
2022/11/26 00:15:47;;;;;;;1.70;1.60;;;4.60;99.90;;;;;;5021239;28;20088;-83
2022/11/26 00:18:14;;;;;;;0.60;0.60;;;4.60;99.90;;;;;;5002829;28;20081;-83
2022/11/26 00:20:41;;;;;;;0.50;0.50;;;4.60;99.90;;;;;;5003336;28;20042;-83
2022/11/26 00:23:18;;;;;;;0.50;0.50;;;4.60;99.90;;;;;;4986876;28;20060;-83
2022/11/26 00:25:48;;;;;;;0.50;0.50;;;4.60;99.90;;;;;;5002116;28;20419;-84
2022/11/26 00:28:42;;;;;;;0.57;0.57;;;4.60;99.90;;;;;;5019506;28;20046;-82
2022/11/26 00:31:14;;;;;;;1.33;1.23;;;4.60;99.90;;;;;;4999328;28;20049;-82
2022/11/26 00:33:40;;;;;;;0.57;0.57;;;4.70;99.90;;;;;;5016959;28;20061;-82
2022/11/26 00:36:15;;;;;;;0.70;0.70;;;4.70;99.90;;;;;;5004783;28;20451;-81
2022/11/26 00:38:52;;;;;;;0.68;0.68;;;4.70;99.90;;;;;;5004137;28;20076;-81
2022/11/26 00:41:21;;;;;;;1.85;1.75;;;4.70;99.90;;;;;;5001372;28;20049;-83
2022/11/26 00:43:48;;;;;;;0.80;0.80;;;4.70;99.90;;;;;;5004281;28;20121;-82
2022/11/26 00:46:15;;;;;;;0.63;0.63;;;4.80;99.90;;;;;;5001950;28;20376;-81
2022/11/26 00:48:41;;;;;;;0.60;0.60;;;4.60;99.90;;;;;;5004144;28;20041;-82
2022/11/26 00:51:17;;;;;;;0.47;0.47;;;4.60;99.90;;;;;;4986948;28;20050;-81
2022/11/26 00:53:44;;;;;;;0.57;0.57;;;4.50;99.90;;;;;;5002507;28;20725;-81
2022/11/26 00:56:18;;;;;;;0.55;0.55;;;5.00;99.90;;;;;;5002012;28;20192;-82
2022/11/26 00:58:46;;;;;;;0.50;0.50;;;4.50;99.90;;;;;;4999307;28;20046;-82
2022/11/26 01:01:13;;;;;;;0.60;0.60;;;4.50;99.90;;;;;;5003415;28;20099;-81
2022/11/26 01:03:42;;;;;;;0.55;0.55;;;4.50;99.90;;;;;;5003799;28;20135;-82
2022/11/26 01:06:16;;;;;;;0.60;0.60;;;4.40;99.90;;;;;;5000748;28;20064;-83
2022/11/26 01:08:42;;;;;;;0.80;0.80;;;4.40;99.90;;;;;;5001251;28;20050;-83
2022/11/26 01:11:17;;;;;;;0.50;0.50;;;4.40;99.90;;;;;;5002490;28;20120;-82
2022/11/26 01:13:45;;;;;;;0.60;0.60;;;4.40;99.90;;;;;;5003188;28;20571;-83
2022/11/26 01:16:22;;;;;;;0.60;0.60;;;4.40;99.90;;;;;;4974787;28;20152;-83
2022/11/26 01:18:49;;;;;;;0.50;0.50;;;4.50;99.90;;;;;;4987409;28;20047;-83
2022/11/26 01:21:16;;;;;;;0.60;0.60;;;4.40;99.90;;;;;;4986360;28;20093;-83
2022/11/26 01:23:42;;;;;;;1.08;1.02;;;4.40;99.90;;;;;;4987070;28;20372;-82
2022/11/26 01:26:38;;;;;;;0.50;0.50;;;4.40;99.90;;;;;;4969791;28;20042;-82
2022/11/26 01:29:04;;;;;;;1.05;1.05;;;4.40;99.90;;;;;;4980314;28;20050;-83
2022/11/26 01:31:32;;;;;;;0.60;0.60;;;5.00;99.90;;;;;;4984230;28;20050;-83
2022/11/26 01:33:57;;;;;;;0.52;0.52;;;4.40;99.90;;;;;;4966933;28;20043;-83
2022/11/26 01:36:36;;;;;;;0.68;0.68;;;4.40;99.90;;;;;;4966520;28;20049;-83
2022/11/26 01:39:17;;;;;;;0.52;0.52;;;4.50;99.90;;;;;;4986049;28;20093;-82
2022/11/26 01:42:16;;;;;;;0.82;0.82;;;4.30;99.90;;;;;;4983386;28;20133;-83
2022/11/26 01:44:42;;;;;;;0.60;0.60;;;4.40;99.90;;;;;;4969518;28;20054;-84
2022/11/26 01:47:24;;;;;;;0.70;0.70;;;4.60;99.90;;;;;;4999488;28;20125;-84
2022/11/26 01:50:30;;;;;;;0.63;0.63;;;4.70;99.90;;;;;;5000458;28;20043;-83
2022/11/26 01:52:58;;;;;;;0.60;0.60;;;4.30;99.90;;;;;;4984704;28;20700;-84
2022/11/26 01:55:25;;;;;;;0.80;0.80;;;4.30;99.90;;;;;;4982647;28;20440;-83
2022/11/26 01:57:52;;;;;;;0.52;0.52;;;4.30;99.90;;;;;;4982025;28;20046;-82
2022/11/26 02:00:17;;;;;;;;;;;4.30;99.90;;;;;;4967306;28;20492;-83
2022/11/26 02:02:44;;;;;;;0.70;0.70;;;4.30;99.90;;;;;;4983872;28;19926;-83
2022/11/26 02:05:27;;;;;;;0.70;0.70;;;4.30;99.90;;;;;;4967793;28;20042;-82
2022/11/26 02:07:54;;;;;;;0.90;0.90;;;4.30;99.90;;;;;;4979904;28;20404;-82
2022/11/26 02:10:19;;;;;;;0.70;0.70;;;4.30;99.90;;;;;;4981606;28;20046;-82
2022/11/26 02:12:46;;;;;;;0.70;0.70;;;4.40;99.90;;;;;;4979627;28;20041;-81
2022/11/26 02:15:12;;;;;;;0.60;0.60;;;4.40;99.90;;;;;;5001108;28;20097;-82
2022/11/26 02:17:42;;;;;;;0.60;0.60;;;4.40;99.90;;;;;;5018375;28;20438;-81
2022/11/26 02:20:33;;;;;;;0.60;0.60;;;4.40;99.90;;;;;;5007896;28;20049;-82
2022/11/26 02:23:42;;;;;;;0.70;0.70;;;4.30;99.90;;;;;;5004550;28;20075;-82
2022/11/26 02:26:21;;;;;;;0.70;0.70;;;4.30;99.90;;;;;;5001743;28;20194;-81
2022/11/26 02:28:46;;;;;;;0.60;0.60;;;4.30;99.90;;;;;;4987366;28;20118;-81
2022/11/26 02:31:24;;;;;;;;;;;4.40;99.90;;;;;;5003102;28;20050;-82
2022/11/26 02:34:21;;;;;;;0.60;0.60;;;4.50;99.90;;;;;;5017614;28;19974;-81
2022/11/26 02:36:55;;;;;;;0.50;0.50;;;4.50;99.90;;;;;;5004875;28;20041;-82
2022/11/26 02:39:24;;;;;;;0.60;0.60;;;4.50;99.90;;;;;;5006332;28;20380;-82
2022/11/26 02:41:55;;;;;;;0.60;0.60;;;4.50;99.90;;;;;;5009102;28;20107;-82
2022/11/26 02:44:43;;;;;;;0.70;0.70;;;4.50;99.90;;;;;;5004413;28;20667;-82
2022/11/26 02:47:15;;;;;;;0.50;0.50;;;4.40;99.90;;;;;;5003738;28;20045;-82
2022/11/26 02:49:43;;;;;;;0.60;0.60;;;5.00;99.90;;;;;;5022167;28;20045;-82
2022/11/26 02:52:10;;;;;;;0.60;0.60;;;4.40;99.90;;;;;;5023942;28;20073;-82
2022/11/26 02:54:38;;;;;;;0.60;0.60;;;4.30;99.90;;;;;;5008941;28;20107;-82
2022/11/26 02:57:08;;;;;;;0.60;0.60;;;4.30;99.90;;;;;;5021809;28;20108;-83
2022/11/26 02:59:35;;;;;;;0.60;0.60;;;5.00;99.90;;;;;;5009374;28;20052;-81
2022/11/26 03:02:11;;;;;;;0.60;0.60;;;4.30;99.90;;;;;;5011077;28;20056;-82
2022/11/26 03:04:44;;;;;;;0.60;0.60;;;4.60;99.90;;;;;;5006463;28;20056;-82
2022/11/26 03:07:13;;;;;;;0.70;0.70;;;4.30;99.90;;;;;;5009985;28;20095;-80
2022/11/26 03:09:47;;;;;;;0.70;0.70;;;4.40;99.90;;;;;;5023690;28;20095;-82
2022/11/26 03:12:12;;;;;;;0.75;0.75;;;4.40;99.90;;;;;;5025064;28;20417;-82
2022/11/26 03:14:45;;;;;;;0.90;0.90;;;4.50;99.90;;;;;;4995245;28;20084;-81
2022/11/26 03:17:12;;;;;;;;;;;4.40;99.90;;;;;;5022895;28;20092;-83
2022/11/26 03:19:38;;;;;;;1.17;1.17;;;4.40;99.90;;;;;;5009381;28;20397;-83
2022/11/26 03:22:04;;;;;;;;;;;4.50;99.90;;;;;;4994978;28;20037;-82
2022/11/26 03:24:30;;;;;;;0.80;0.80;;;4.50;99.90;;;;;;4993669;28;20052;-82
2022/11/26 03:26:56;;;;;;;0.70;0.70;;;4.60;99.90;;;;;;5007109;28;20147;-82
2022/11/26 03:29:22;;;;;;;0.63;0.63;;;4.50;99.90;;;;;;5005567;28;20124;-82
2022/11/26 03:31:48;;;;;;;1.20;1.20;;;4.50;99.90;;;;;;4986987;28;20046;-81
2022/11/26 03:34:13;;;;;;;1.73;1.60;;;4.50;99.90;;;;;;5002086;28;20052;-82
2022/11/26 03:36:39;;;;;;;0.50;0.50;;;4.60;99.90;;;;;;4988471;28;20045;-82
2022/11/26 03:39:05;;;;;;;0.50;0.50;;;4.50;99.90;;;;;;5003852;28;20041;-82
2022/11/26 03:41:31;;;;;;;0.88;0.88;;;4.60;99.90;;;;;;4985131;28;20494;-82
2022/11/26 03:43:58;;;;;;;0.68;0.68;;;4.50;99.90;;;;;;4999578;28;20045;-82
2022/11/26 03:46:24;;;;;;;0.60;0.60;;;4.50;99.90;;;;;;4982620;28;20115;-83
2022/11/26 03:48:49;;;;;;;0.70;0.70;;;4.40;99.90;;;;;;5015999;28;20033;-82
2022/11/26 03:51:15;;;;;;;0.73;0.73;;;4.60;99.90;;;;;;4996723;28;20038;-81
2022/11/26 03:53:41;;;;;;;0.50;0.50;;;5.00;99.90;;;;;;5012369;28;20124;-81
2022/11/26 03:56:07;;;;;;;1.35;1.30;;;4.30;99.90;;;;;;4998396;28;20053;-81
2022/11/26 03:58:33;;;;;;;0.82;0.82;;;4.30;99.90;;;;;;5010941;28;20037;-82
2022/11/26 04:01:00;;;;;;;0.52;0.52;;;4.30;99.90;;;;;;4995495;28;20052;-82
2022/11/26 04:03:26;;;;;;;0.50;0.50;;;4.30;99.90;;;;;;4999172;28;20136;-82
2022/11/26 04:05:53;;;;;;;0.60;0.60;;;4.30;99.90;;;;;;5014819;28;20095;-83
2022/11/26 04:08:18;;;;;;;0.52;0.52;;;4.30;99.90;;;;;;5012413;28;20128;-83
2022/11/26 04:10:44;;;;;;;1.75;1.23;;;4.20;99.90;;;;;;4998916;28;21843;-83
2022/11/26 04:13:10;;;;;;;0.70;0.70;;;4.30;99.90;;;;;;4997820;28;20046;-84
2022/11/26 04:15:35;;;;;;;0.70;0.70;;;4.30;99.90;;;;;;5014054;28;20053;-83
2022/11/26 04:18:01;;;;;;;0.60;0.60;;;4.20;99.90;;;;;;5014690;28;20041;-83
2022/11/26 04:20:27;;;;;;;0.82;0.82;;;4.10;99.90;;;;;;5006077;28;20049;-84
2022/11/26 04:22:53;;;;;;;0.60;0.60;;;4.10;99.90;;;;;;5014920;28;20041;-82
2022/11/26 04:25:18;;;;;;;0.80;0.80;;;4.10;99.90;;;;;;5000740;28;20471;-82
2022/11/26 04:27:44;;;;;;;0.60;0.60;;;4.20;99.90;;;;;;5002438;28;20769;-82
2022/11/26 04:30:10;;;;;;;0.60;0.60;;;4.10;99.90;;;;;;4984668;28;20995;-82
2022/11/26 04:32:38;;;;;;;;;;;4.10;99.90;;;;;;5003811;28;20045;-83
2022/11/26 04:35:06;;;;;;;0.70;0.70;;;4.10;99.90;;;;;;4998551;28;19956;-83
2022/11/26 04:37:33;;;;;;;0.68;0.68;;;4.00;99.90;;;;;;5014498;28;20049;-83
2022/11/26 04:40:00;;;;;;;0.68;0.68;;;4.10;99.90;;;;;;4983423;28;20045;-82
2022/11/26 04:42:32;;;;;;;0.50;0.50;;;4.10;99.90;;;;;;4998451;28;21606;-83
2022/11/26 04:44:57;;;;;;;1.13;1.02;;;4.10;99.90;;;;;;4999888;28;20088;-83
2022/11/26 04:47:23;;;;;;;0.80;0.80;;;4.20;99.90;;;;;;4996914;28;20175;-83
2022/11/26 04:49:49;;;;;;;0.70;0.70;;;4.20;99.90;;;;;;4998950;28;20045;-83
2022/11/26 04:52:14;;;;;;;0.52;0.52;;;4.20;99.90;;;;;;4982365;28;20132;-82
2022/11/26 04:54:41;;;;;;;0.63;0.63;;;4.20;99.90;;;;;;4999964;28;20115;-83
2022/11/26 04:57:06;;;;;;;;;;;4.20;99.90;;;;;;4999337;28;20053;-82
2022/11/26 04:59:32;;;;;;;0.57;0.57;;;4.20;99.90;;;;;;4999889;28;19948;-83
2022/11/26 05:01:58;;;;;;;0.85;0.85;;;4.30;99.90;;;;;;4984562;28;20060;-82
2022/11/26 05:04:25;;;;;;;0.70;0.70;;;4.30;99.90;;;;;;5018740;28;20090;-80
2022/11/26 05:06:51;;;;;;;0.60;0.60;;;4.30;99.90;;;;;;5000406;28;20131;-81
2022/11/26 05:09:16;;;;;;;0.70;0.70;;;4.30;99.90;;;;;;5012871;28;20049;-82
2022/11/26 05:11:42;;;;;;;0.70;0.70;;;4.20;99.90;;;;;;4998779;28;20103;-82
2022/11/26 05:14:07;;;;;;;0.60;0.60;;;4.20;99.90;;;;;;5014525;28;20127;-83
2022/11/26 05:16:33;;;;;;;0.70;0.70;;;4.30;99.90;;;;;;5012755;28;20099;-81
2022/11/26 05:18:59;;;;;;;0.60;0.60;;;4.20;99.90;;;;;;5015480;28;20426;-82
2022/11/26 05:21:25;;;;;;;0.85;0.82;;;4.20;99.90;;;;;;5018922;28;20089;-82
2022/11/26 05:23:53;;;;;;;0.88;0.88;;;4.20;99.90;;;;;;4999014;28;20056;-82
2022/11/26 05:26:19;;;;;;;0.60;0.60;;;4.20;99.90;;;;;;4984988;28;20037;-82
2022/11/26 05:28:44;;;;;;;0.70;0.70;;;4.20;99.90;;;;;;5014809;28;20053;-83
2022/11/26 05:31:10;;;;;;;0.70;0.70;;;4.20;99.90;;;;;;5017898;28;20491;-82
2022/11/26 05:33:36;;;;;;;0.50;0.50;;;4.20;99.90;;;;;;4994425;28;20041;-81
2022/11/26 05:36:03;;;;;;;0.60;0.60;;;4.30;99.90;;;;;;5002868;28;20064;-81
2022/11/26 05:38:29;;;;;;;0.50;0.50;;;4.30;99.90;;;;;;5015854;28;20049;-82
2022/11/26 05:40:55;;;;;;;0.63;0.63;;;4.30;99.90;;;;;;5001554;28;20151;-82
2022/11/26 05:43:20;;;;;;;0.65;0.65;;;4.30;99.90;;;;;;5016230;28;20450;-82
2022/11/26 05:45:47;;;;;;;0.70;0.70;;;4.30;99.90;;;;;;5003346;28;20041;-81
2022/11/26 05:48:13;;;;;;;0.70;0.70;;;4.30;99.90;;;;;;4996397;28;20092;-81
2022/11/26 05:50:39;;;;;;;0.70;0.70;;;4.30;99.90;;;;;;5014715;28;20048;-82
2022/11/26 05:53:05;;;;;;;;;;;5.00;99.90;;;;;;5013080;28;20526;-82
2022/11/26 05:55:32;;;;;;;0.85;0.85;;;4.30;99.90;;;;;;4997820;28;19925;-82
2022/11/26 05:57:58;;;;;;;0.60;0.60;;;4.30;99.90;;;;;;5015523;28;20045;-81
2022/11/26 06:00:24;;;;;;;3.40;3.25;;;4.30;99.90;;;;;;5002418;28;20045;-82
2022/11/26 06:02:53;;;;;;;0.70;0.70;;;4.30;99.90;;;;;;5018473;28;20042;-82
2022/11/26 06:05:18;;;;;;;0.60;0.60;;;4.30;99.90;;;;;;5001467;28;20118;-82
2022/11/26 06:07:44;;;;;;;0.65;0.65;;;4.30;99.90;;;;;;4980078;28;20068;-82
2022/11/26 06:10:10;;;;;;;0.60;0.60;;;4.30;99.90;;;;;;5000464;28;20791;-83
2022/11/26 06:12:36;;;;;;;;;;;4.30;99.90;;;;;;5005592;28;20156;-81
2022/11/26 06:15:02;;;;;;;0.47;0.47;;;4.30;99.90;;;;;;5009523;28;19968;-78
2022/11/26 06:17:27;;;;;;;;;;;4.30;99.90;;;;;;5004466;28;20053;-80
2022/11/26 06:19:53;;;;;;;0.90;0.90;;;4.30;99.90;;;;;;5015297;28;19963;-79
2022/11/26 06:22:19;;;;;;;0.60;0.60;;;4.20;99.90;;;;;;5012026;28;20041;-82
2022/11/26 06:24:44;;;;;;;0.85;0.85;;;4.20;99.90;;;;;;4987214;28;20069;-81
2022/11/26 06:27:10;;;;;;;0.63;0.63;;;4.10;99.90;;;;;;4990339;28;20037;-82
2022/11/26 06:29:36;;;;;;;0.70;0.70;;;4.20;99.90;;;;;;5027446;28;20041;-83
2022/11/26 06:32:01;;;;;;;0.60;0.60;;;4.30;99.90;;;;;;4996150;28;20576;-82
2022/11/26 06:34:27;;;;;;;0.70;0.70;;;4.20;99.90;;;;;;5010759;28;20399;-82
2022/11/26 06:36:53;;;;;;;0.68;0.68;;;4.20;99.90;;;;;;5020674;28;20048;-84
2022/11/26 06:39:18;;;;;;;0.57;0.57;;;4.30;99.90;;;;;;5009080;28;20049;-83
2022/11/26 06:41:44;;;;;;;0.60;0.60;;;4.20;99.90;;;;;;4993469;28;20045;-83
2022/11/26 06:44:09;;;;;;;0.60;0.60;;;4.40;99.90;;;;;;4989574;28;20037;-83
2022/11/26 06:46:35;;;;;;;0.93;0.93;;;4.20;99.90;;;;;;5002678;28;20045;-86
2022/11/26 06:49:03;;;;;;;0.60;0.60;;;4.20;99.90;;;;;;4995923;28;20804;-82
2022/11/26 06:51:29;;;;;;;1.08;1.08;;;4.90;99.90;;;;;;4999754;28;20033;-84
2022/11/26 06:53:55;;;;;;;0.60;0.60;;;4.30;99.90;;;;;;5002252;28;20034;-83
2022/11/26 06:56:22;;;;;;;1.02;1.02;;;4.30;99.90;;;;;;4983056;28;20045;-84
2022/11/26 06:58:49;;;;;;;0.88;0.88;;;4.30;99.90;;;;;;5001302;28;20072;-83
2022/11/26 07:01:17;;;;;;;0.70;0.70;;;4.30;99.90;;;;;;5005338;28;20134;-84
2022/11/26 07:03:43;;;;;;;0.65;0.65;;;4.40;99.90;;;;;;5022757;28;20367;-83
2022/11/26 07:06:18;;;;;;;0.70;0.70;;;4.80;99.90;;;;;;4972785;28;20045;-82
2022/11/26 07:08:43;;;;;;;1.25;1.15;;;4.40;99.90;;;;;;5014814;28;20041;-83
2022/11/26 07:11:09;;;;;;;0.70;0.70;;;4.60;99.90;;;;;;5012204;28;20052;-83
2022/11/26 07:13:36;;;;;;;0.88;0.88;;;4.40;99.90;;;;;;5008559;28;20098;-82
2022/11/26 07:16:03;;;;;;;1.17;1.05;;;4.50;99.90;;;;;;5013002;28;20419;-82
2022/11/26 07:18:29;;;;;;;0.60;0.60;;;4.50;99.90;;;;;;5022124;28;20134;-82
2022/11/26 07:20:55;;;;;;;0.73;0.73;;;4.50;99.90;;;;;;5002552;28;20080;-81
2022/11/26 07:23:21;;;;;;;0.60;0.60;;;4.50;99.90;;;;;;5005328;28;20124;-83
2022/11/26 07:25:46;;;;;;;0.75;0.75;;;4.40;99.90;;;;;;5006938;28;20144;-82
2022/11/26 07:28:12;;;;;;;0.68;0.68;;;4.50;99.90;;;;;;4983551;28;20055;-83
2022/11/26 07:30:38;;;;;;;0.65;0.65;;;4.50;99.90;;;;;;4997624;28;20038;-82
2022/11/26 07:33:04;;;;;;;0.68;0.68;;;4.50;99.90;;;;;;4998014;28;20543;-81
2022/11/26 07:35:31;;;;;;;0.70;0.70;;;4.50;99.90;;;;;;5003246;28;20422;-81
2022/11/26 07:37:57;;;;;;;0.70;0.70;;;4.60;99.90;;;;;;4990524;28;20114;-82
2022/11/26 07:40:23;;;;;;;0.70;0.70;;;4.50;99.90;;;;;;5022846;28;20460;-82
2022/11/26 07:42:49;;;;;;;1.38;1.15;;;4.60;99.90;;;;;;5006852;28;20044;-83
2022/11/26 07:45:15;;;;;;;0.80;0.80;;;4.60;99.90;;;;;;5022299;28;20049;-83
2022/11/26 07:47:41;;;;;;;0.82;0.82;;;4.70;99.90;;;;;;5007316;28;20049;-83
2022/11/26 07:50:07;;;;;;;0.70;0.70;;;4.90;99.90;;;;;;5005230;28;20092;-82
2022/11/26 07:52:33;;;;;;;0.90;0.90;;;4.90;99.90;;;;;;5012653;28;20125;-82
2022/11/26 07:54:59;;;;;;;0.75;0.75;;;4.90;99.90;;;;;;5000101;28;20168;-81
2022/11/26 07:57:24;;;;;;;0.88;0.85;;;5.00;99.90;;;;;;5012221;28;20045;-83
2022/11/26 07:59:50;;;;;;;1.38;1.33;;;5.80;99.90;;;;;;5014267;28;20076;-82
2022/11/26 08:02:16;;;;;;;0.80;0.80;;;5.00;99.90;;;;;;5001371;28;20048;-83
2022/11/26 08:04:42;;;;;;;0.60;0.60;;;5.00;99.90;;;;;;5015457;28;20541;-81
2022/11/26 08:07:08;;;;;;;5.00;0.93;;;5.00;99.90;;;;;;4989596;28;20065;-81
2022/11/26 08:09:33;;;;;;;0.57;0.57;;;5.30;99.90;;;;;;5013719;28;20482;-82
2022/11/26 08:11:59;;;;;;;1.13;1.02;;;5.00;99.90;;;;;;5030453;28;20506;-83
2022/11/26 08:14:25;;;;;;;0.88;0.88;;;4.90;99.90;;;;;;5011312;28;20124;-81
2022/11/26 08:16:50;;;;;;;0.70;0.70;;;4.90;99.90;;;;;;4985028;28;20069;-83
2022/11/26 08:19:16;;;;;;;0.50;0.50;;;4.90;99.90;;;;;;4999742;28;20050;-82
2022/11/26 08:21:42;;;;;;;0.63;0.63;;;4.80;99.90;;;;;;5018450;28;20048;-82
2022/11/26 08:24:13;;;;;;;0.50;0.50;;;5.60;99.90;;;;;;5011745;28;20045;-81
2022/11/26 08:26:39;;;;;;;0.82;0.82;;;4.90;99.90;;;;;;5000029;28;20046;-81
2022/11/26 08:29:05;;;;;;;0.50;0.50;;;4.90;99.90;;;;;;4996096;28;20061;-81
2022/11/26 08:31:39;;;;;;;0.55;0.55;;;5.70;99.90;;;;;;5014324;28;20080;-81
2022/11/26 08:34:05;;;;;;;0.75;0.75;;;4.90;99.90;;;;;;5017760;28;20041;-80
2022/11/26 08:36:32;;;;;;;0.70;0.70;;;4.90;99.90;;;;;;5007464;28;20533;-82
2022/11/26 08:38:59;;;;;;;0.80;0.80;;;4.90;99.90;;;;;;5016836;28;20037;-82
2022/11/26 08:41:25;;;;;;;0.60;0.60;;;5.00;99.90;;;;;;5009845;28;20076;-82
2022/11/26 08:43:51;;;;;;;2.65;2.20;;;5.00;99.90;;;;;;5031764;28;20037;-83
2022/11/26 08:46:16;;;;;;;0.75;0.73;;;5.50;99.90;;;;;;5014909;28;20037;-82
2022/11/26 08:48:44;;;;;;;0.52;0.52;;;5.10;99.90;;;;;;5016506;28;20041;-82
2022/11/26 08:51:11;;;;;;;0.60;0.60;;;5.20;99.90;;;;;;5029096;28;20041;-82
2022/11/26 08:53:38;;;;;;;0.50;0.50;;;5.20;99.90;;;;;;5015715;28;20079;-83
2022/11/26 08:56:10;;;;;;;0.50;0.50;;;5.30;99.90;;;;;;4996049;28;20037;-82
2022/11/26 08:58:38;;;;;;;0.65;0.65;;;5.30;99.90;;;;;;5011860;28;20049;-83
2022/11/26 09:01:25;;;;;;;0.60;0.60;;;5.40;99.90;;;;;;5009862;28;20045;-81
2022/11/26 09:03:52;;;;;;;0.50;0.50;;;5.40;99.90;;;;;;5013788;28;20391;-84
2022/11/26 09:06:19;;;;;;;0.50;0.50;;;5.40;99.90;;;;;;5010335;28;20052;-82
2022/11/26 09:11:32;;;;;;;0.60;0.60;;;5.70;99.90;;;;;;5009037;28;20046;-81
2022/11/26 09:13:58;;;;;;;0.60;0.60;;;5.60;99.90;;;;;;5010390;28;20103;-81
2022/11/26 09:16:25;;;;;;;0.80;0.80;;;5.60;99.90;;;;;;5022517;28;20050;-80
2022/11/26 09:18:51;;;;;;;0.73;0.73;;;5.70;99.90;;;;;;5009598;28;20120;-81
2022/11/26 09:21:17;;;;;;;0.70;0.70;;;5.70;99.90;;;;;;4992275;28;20046;-81
2022/11/26 09:23:43;;;;;;;0.70;0.70;;;5.80;99.90;;;;;;4991627;28;20042;-81
2022/11/26 09:26:08;;;;;;;0.50;0.50;;;5.80;99.90;;;;;;5007929;28;20095;-82
2022/11/26 09:28:34;;;;;;;0.60;0.60;;;5.90;99.90;;;;;;5003021;28;20506;-79
2022/11/26 09:31:01;;;;;;;0.70;0.70;;;5.90;99.90;;;;;;5000550;28;20067;-84
2022/11/26 09:33:27;;;;;;;0.47;0.47;;;6.00;99.90;;;;;;5006988;28;20475;-82
2022/11/26 09:36:03;;;;;;;1.50;1.42;;;6.00;99.90;;;;;;4987520;28;20038;-81
2022/11/26 09:38:31;;;;;;;4.20;0.95;;;6.00;99.90;;;;;;4985859;28;20848;-82
2022/11/26 09:41:13;;;;;;;0.60;0.60;;;6.10;99.90;;;;;;5003215;28;20042;-82
2022/11/26 09:43:39;;;;;;;0.90;0.90;;;6.10;99.90;;;;;;4999338;28;20081;-82
2022/11/26 09:46:05;;;;;;;2.10;1.85;;;6.20;99.90;;;;;;5002854;28;20080;-81
2022/11/26 09:48:33;;;;;;;0.55;0.55;;;6.20;99.90;;;;;;4984761;28;20715;-82
2022/11/26 09:51:13;;;;;;;0.45;0.45;;;6.20;99.90;;;;;;4992420;28;20053;-82
2022/11/26 09:53:46;;;;;;;0.85;0.85;;;6.70;99.90;;;;;;4994367;28;20053;-82
2022/11/26 09:56:25;;;;;;;0.50;0.50;;;6.30;99.90;;;;;;4983463;28;20116;-82
2022/11/26 09:58:56;;;;;;;0.55;0.55;;;6.40;99.90;;;;;;4992642;28;20433;-82
2022/11/26 10:01:23;;;;;;;0.60;0.60;;;6.40;99.90;;;;;;4987343;28;20034;-83
2022/11/26 10:03:51;;;;;;;0.50;0.50;;;6.50;99.90;;;;;;4986260;28;20041;-83
2022/11/26 10:06:28;;;;;;;0.60;0.60;;;6.80;99.90;;;;;;4984931;28;20052;-83
2022/11/26 10:08:57;;;;;;;;;;;6.60;99.90;;;;;;4991859;28;20164;-80
2022/11/26 10:11:53;;;;;;;0.40;0.40;;;6.60;99.90;;;;;;4990988;28;20011;-83
2022/11/26 10:15:11;;;;;;;0.50;0.50;;;6.70;99.90;;;;;;4992321;28;20042;-82
2022/11/26 10:18:01;;;;;;;0.73;0.73;;;6.80;99.90;;;;;;4966848;28;20447;-81
2022/11/26 10:20:40;;;;;;;0.60;0.60;;;6.80;99.90;;;;;;5008903;28;20560;-84
2022/11/26 10:23:12;;;;;;;0.98;0.98;;;6.90;99.90;;;;;;5009918;28;20099;-82
2022/11/26 10:25:44;;;;;;;0.82;0.82;;;6.90;99.90;;;;;;4993110;28;20038;-83
2022/11/26 10:28:42;;;;;;;0.50;0.50;;;6.90;99.90;;;;;;4995344;28;20045;-83
2022/11/26 10:31:23;;;;;;;1.17;1.17;;;6.90;99.90;;;;;;5004726;28;20041;-83
2022/11/26 10:33:56;;;;;;;0.50;0.50;;;6.90;99.90;;;;;;4992122;28;20049;-82
2022/11/26 10:36:35;;;;;;;0.80;0.80;;;7.00;99.90;;;;;;4992358;28;20050;-82
2022/11/26 10:39:01;;;;;;;0.60;0.60;;;7.10;99.90;;;;;;5003920;28;20087;-82
2022/11/26 10:41:36;;;;;;;0.57;0.57;;;7.10;99.90;;;;;;5008804;28;20486;-84
2022/11/26 10:44:28;;;;;;;0.52;0.52;;;7.20;99.90;;;;;;5007726;28;20034;-83
2022/11/26 10:46:54;;;;;;;0.60;0.60;;;7.30;99.90;;;;;;5003379;28;20060;-81
2022/11/26 10:49:28;;;;;;;0.80;0.80;;;7.30;99.90;;;;;;5005174;28;20050;-83
2022/11/26 10:52:01;;;;;;;0.80;0.60;;;7.40;99.90;;;;;;4987565;28;20450;-84
2022/11/26 10:54:33;;;;;;;0.93;0.93;;;7.50;99.90;;;;;;5005557;28;20530;-83
2022/11/26 10:57:07;;;;;;;1.02;1.02;;;7.50;99.90;;;;;;5002775;28;20057;-84
2022/11/26 10:59:39;;;;;;;2.60;0.80;;;7.60;99.90;;;;;;5000741;28;20038;-83
2022/11/26 11:02:33;;;;;;;0.90;0.90;;;7.60;99.90;;;;;;5002585;28;20124;-83
2022/11/26 11:05:03;;;;;;;0.93;0.88;;;7.60;99.90;;;;;;4999031;28;21011;-82
2022/11/26 11:07:40;;;;;;;0.68;0.68;;;7.70;99.90;;;;;;4989330;28;20046;-82
2022/11/26 11:10:09;;;;;;;;;;;7.70;99.90;;;;;;5010522;28;20037;-83
2022/11/26 11:12:36;;;;;;;0.52;0.47;;;7.70;99.90;;;;;;5011992;28;19957;-81
2022/11/26 11:15:25;;;;;;;0.95;0.93;;;7.80;99.90;;;;;;5007992;28;20045;-84
2022/11/26 11:18:14;;;;;;;0.57;0.57;;;7.90;99.90;;;;;;5031102;28;20049;-83
2022/11/26 11:20:42;;;;;;;0.60;0.60;;;7.90;99.90;;;;;;5010807;28;20045;-83
2022/11/26 11:23:11;;;;;;;0.75;0.75;;;7.90;99.90;;;;;;5028332;28;20037;-84
2022/11/26 11:25:42;;;;;;;0.80;0.68;;;8.00;99.90;;;;;;4998789;28;20095;-82
2022/11/26 11:28:11;;;;;;;1.40;1.30;;;8.00;99.90;;;;;;5012336;28;20509;-83
2022/11/26 11:30:38;;;;;;;1.48;0.88;;;8.10;99.90;;;;;;5024513;28;20042;-84
2022/11/26 11:33:26;;;;;;;1.25;1.20;;;8.10;99.90;;;;;;5015286;28;20061;-81
2022/11/26 11:35:59;;;;;;;0.98;0.90;;;8.20;99.90;;;;;;5016194;28;20099;-83
2022/11/26 11:38:27;;;;;;;2.70;1.08;;;8.20;99.90;;;;;;5014048;28;20041;-83
2022/11/26 11:40:53;;;;;;;0.55;0.55;;;8.20;99.90;;;;;;5011788;28;20079;-83
2022/11/26 11:43:21;;;;;;;1.50;1.40;;;8.30;99.90;;;;;;5009124;28;20068;-83
2022/11/26 11:46:09;;;;;;;0.60;0.60;;;8.30;99.90;;;;;;5013668;28;20049;-83
2022/11/26 11:48:42;;;;;;;;;;;8.30;99.90;;;;;;5012878;28;20114;-82
2022/11/26 11:51:26;;;;;;;0.70;0.70;;;8.40;99.90;;;;;;5029485;28;19925;-84
2022/11/26 11:54:10;;;;;;;0.57;0.57;;;8.40;99.90;;;;;;5035227;28;20048;-82
2022/11/26 11:56:42;;;;;;;0.40;0.40;;;8.30;99.90;;;;;;5025805;28;20047;-83
2022/11/26 11:59:36;;;;;;;0.73;0.65;;;8.40;99.90;;;;;;5008337;28;20038;-84
2022/11/26 12:02:17;;;;;;;0.32;0.32;;;8.40;99.90;;;;;;5011136;28;20041;-84
2022/11/26 12:05:04;;;;;;;0.73;0.57;;;8.40;99.90;;;;;;5008725;28;20037;-83
2022/11/26 12:08:12;;;;;;;1.08;1.08;;;8.40;99.90;;;;;;5010374;28;20049;-83
2022/11/26 12:10:55;;;;;;;1.38;1.13;;;8.40;99.90;;;;;;5011834;28;20041;-82
2022/11/26 12:13:22;;;;;;;0.50;0.50;;;8.40;99.90;;;;;;5008866;28;20039;-82
2022/11/26 12:15:55;;;;;;;1.25;1.20;;;8.40;99.90;;;;;;5011590;28;20057;-83
2022/11/26 12:19:00;;;;;;;1.15;1.05;;;8.40;99.90;;;;;;5025663;28;20136;-84
2022/11/26 12:21:40;;;;;;;0.50;0.50;;;8.40;99.90;;;;;;5026992;28;20491;-83
2022/11/26 12:24:21;;;;;;;0.50;0.50;;;8.50;99.90;;;;;;5010205;28;20121;-83
2022/11/26 12:27:02;;;;;;;0.70;0.70;;;8.50;99.90;;;;;;5008829;28;20041;-84
2022/11/26 12:29:50;;;;;;;1.60;1.50;;;8.50;99.90;;;;;;5025007;28;20037;-83
2022/11/26 12:32:18;;;;;;;1.08;1.08;;;8.60;99.90;;;;;;5024615;28;20133;-82
2022/11/26 12:35:10;;;;;;;1.70;1.17;;;8.50;99.90;;;;;;5029294;28;20041;-83
2022/11/26 12:37:39;;;;;;;0.40;0.40;;;8.60;99.90;;;;;;5025492;28;20061;-82
2022/11/26 12:40:23;;;;;;;2.05;1.95;;;8.70;99.90;;;;;;5010865;28;20041;-82
2022/11/26 12:42:58;;;;;;;0.50;0.50;;;8.60;99.90;;;;;;5012270;28;20048;-83
2022/11/26 12:45:40;;;;;;;1.50;1.35;;;8.70;99.90;;;;;;5010969;28;20079;-82
2022/11/26 12:48:13;;;;;;;1.42;0.80;;;8.70;99.90;;;;;;5017364;28;20042;-82
2022/11/26 12:50:47;;;;;;;0.40;0.40;;;8.70;99.90;;;;;;5012757;28;20044;-82
2022/11/26 12:53:50;;;;;;;0.55;0.55;;;8.70;99.90;;;;;;5033527;28;20056;-83
2022/11/26 12:56:22;;;;;;;0.65;0.65;;;8.70;99.90;;;;;;5008728;28;20172;-82
2022/11/26 12:59:00;;;;;;;2.05;1.92;;;8.60;99.90;;;;;;5021132;28;20033;-83
2022/11/26 13:01:27;;;;;;;1.10;1.10;;;8.60;99.90;;;;;;5005740;28;20111;-83
2022/11/26 13:03:53;;;;;;;;;;;8.60;99.90;;;;;;5010118;28;20505;-83
2022/11/26 13:06:50;;;;;;;0.60;0.60;;;8.50;99.90;;;;;;4989054;28;20054;-83
2022/11/26 13:09:47;;;;;;;1.05;0.95;;;8.50;99.90;;;;;;5007173;28;20430;-84
2022/11/26 13:12:17;;;;;;;0.52;0.52;;;8.50;99.90;;;;;;5012399;28;20103;-83
2022/11/26 13:14:54;;;;;;;3.63;0.75;;;8.50;99.90;;;;;;5008114;28;20975;-83
2022/11/26 13:17:28;;;;;;;0.80;0.80;;;8.50;99.90;;;;;;5007225;28;20134;-83
2022/11/26 13:20:20;;;;;;;0.55;0.55;;;8.50;99.90;;;;;;5022342;28;20055;-84
2022/11/26 13:23:15;;;;;;;0.60;0.60;;;8.50;99.90;;;;;;5006061;28;20049;-82